• Join FlightAware (Why Join?)
  • Login
  • US Flag 
08:59PM EDT


 

Airport Tracker/Info


-or-


 

Live Flight TrackerFlight Track Log ✈ FLG4222 ✈ 1 Oct 2013 ✈ KBGM - KDTW

Flight Track Log - Related Links

Times and Time Zones

All times are in EDT time to prevent confusion due to time zone crossing. See the FLG4222 flight status page for this flight to view local times or setup timezone preferences in your user account.

Time Position Orientation Groundspeed Altitude Reporting Facility
EDT Latitude Longitude Course Direction KTS MPH feet Rate Location/Type
11:43AM 42.2317 -76.1658 273° West 235 270 7,200  Level Cleveland Center
11:44AM 42.2575 -76.2558 291° West 243 280 10,200 2,160 Climbing Cleveland Center
11:45AM 42.2567 -76.3669 269° West 290 334 11,700 1,320 Climbing Cleveland Center
11:46AM 42.2467 -76.4847 263° West 309 356 13,000 1,320 Climbing Cleveland Center
11:47AM 42.2403 -76.6106 266° West 327 376 14,500 1,380 Climbing Cleveland Center
11:48AM 42.2717 -76.7394 288° West 385 443 15,900 1,320 Climbing Cleveland Center
11:49AM 42.3133 -76.8583 295° West 356 410 17,300 1,200 Climbing Cleveland Center
11:50AM 42.3550 -76.9750 296° West 350 403 18,400 1,080 Climbing Cleveland Center
11:51AM 42.4028 -77.1111 295° West 357 411 19,600 1,080 Climbing Cleveland Center
11:52AM 42.4489 -77.2425 295° West 359 413 20,700 1,020 Climbing Cleveland Center
11:53AM 42.4828 -77.3697 290° West 361 415 21,700 960 Climbing Cleveland Center
11:54AM 42.4933 -77.5042 276° West 360 414 22,700 960 Climbing Cleveland Center
11:55AM 42.5047 -77.6369 277° West 355 409 23,700 960 Climbing Cleveland Center
11:56AM 42.5139 -77.7683 275° West 353 406 24,700 960 Climbing Cleveland Center
11:57AM 42.5236 -77.9111 275° West 352 405 25,800 600 Climbing Cleveland Center
11:58AM 42.5347 -78.0417 277° West 355 409 26,000 60 Climbing Cleveland Center
11:59AM 42.5436 -78.1803 275° West 372 428 26,000  Level Cleveland Center
12:00PM 42.5547 -78.3239 276° West 387 445 26,000  Level Cleveland Center
12:01PM 42.5642 -78.4697 275° West 395 455 26,000  Level Cleveland Center
12:02PM 42.5750 -78.6506 275° West 407 468 26,000  Level Cleveland Center
12:03PM 42.5867 -78.8081 276° West 404 465 26,000  Level Cleveland Center
12:05PM 42.5956 -78.9556 275° West 407 468 26,000  Level Cleveland Center
12:06PM 42.6067 -79.1136 276° West 403 464 26,000  Level Cleveland Center
12:07PM 42.6167 -79.2731 275° West 405 466 26,000  Level Cleveland Center
12:08PM 42.6267 -79.4317 275° West 404 465 26,000  Level Cleveland Center
12:09PM 42.6356 -79.5778 275° West 405 466 26,000  Level Cleveland Center
12:10PM 42.6450 -79.7367 275° West 404 465 26,000  Level Cleveland Center
12:11PM 42.6544 -79.8950 275° West 402 463 26,000  Level Cleveland Center
12:12PM 42.6617 -80.0333 274° West 404 465 26,000  Level Cleveland Center
12:13PM 42.6714 -80.2122 274° West 405 466 26,000  Level Cleveland Center
12:14PM 42.6800 -80.3639 274° West 402 463 26,000  Level Cleveland Center
12:15PM 42.6878 -80.5147 274° West 398 458 26,000 -240 Level Cleveland Center
12:16PM 42.6950 -80.6653 274° West 396 456 25,600 -480 Descending Cleveland Center
12:17PM 42.7028 -80.8161 274° West 398 458 25,100 -540 Descending Cleveland Center
12:18PM 42.6964 -80.9628 267° West 391 450 24,600 -540 Descending Cleveland Center
12:19PM 42.6806 -81.1072 262° West 385 443 24,100 -780 Descending Cleveland Center
12:20PM 42.6644 -81.2508 261° West 383 441 23,100 -1,080 Descending Cleveland Center
12:21PM 42.6450 -81.4114 261° West 368 423 21,900 -1,080 Descending Cleveland Center
12:22PM 42.6297 -81.5467 261° West 363 418 20,900 -1,020 Descending Cleveland Center
12:23PM 42.6139 -81.6811 261° West 359 413 19,900 -1,020 Descending Cleveland Center
12:24PM 42.5992 -81.8075 261° West 358 412 18,900 -1,020 Descending Cleveland Center
12:25PM 42.5833 -81.9406 261° West 357 411 17,900 -1,140 Descending Cleveland Center
12:26PM 42.5669 -82.0719 260° West 355 409 16,600 -1,500 Descending Cleveland Center
12:27PM 42.5483 -82.2267 261° West 350 403 14,900 -1,680 Descending Cleveland Center
12:27PM 42.5472 -82.2486 266° West 349 402 14,700 -1,380 Descending Cleveland Center
12:28PM 42.5314 -82.3547 259° West 347 399 13,500 -1,500 Descending Cleveland Center
12:29PM 42.5219 -82.4353 261° West 315 362 12,500 -1,380 Descending Cleveland Center
12:29PM 42.5167 -82.4700 258° West 324 373 12,100 -540 Descending Cleveland Center
12:30PM 42.5083 -82.5408 261° West 270 311 12,000 -120 Descending Cleveland Center
12:30PM 42.4989 -82.5703 246° West 286 329 12,000 -1,140 Level Cleveland Center
12:31PM 42.4761 -82.6386 246° West 282 325 10,900 -1,680 Descending Cleveland Center
12:31PM 42.4647 -82.6642 239° Southwest 279 321 10,300 -1,800 Descending Cleveland Center
12:32PM 42.4422 -82.7331 246° West 266 306 9,100 -1,260 Descending Cleveland Center
12:32PM 42.4325 -82.7550 239° Southwest 273 314 9,000 -420 Descending Cleveland Center
12:33PM 42.4031 -82.8128 235° Southwest 233 268 8,700 -900 Descending Cleveland Center
12:33PM 42.3858 -82.8425 232° Southwest 242 278 8,100 -1,380 Descending Cleveland Center
12:34PM 42.3786 -82.8858 257° West 224 258 7,300 -1,080 Descending Cleveland Center
12:34PM 42.3881 -82.9183 291° West 227 261 7,000 -360 Descending Cleveland Center
12:35PM 42.4028 -82.9569 297° West 223 257 7,000  Level Cleveland Center
12:35PM 42.4269 -82.9811 324° Northwest 227 261 7,000  Level Cleveland Center
12:36PM 42.4594 -83.0125 325° Northwest 234 269 7,000  Level Cleveland Center
12:37PM 42.4775 -83.0286 327° Northwest 225 259 7,000  Level Cleveland Center
12:37PM 42.5028 -83.0497 328° Northwest 187 215 7,000  Level Cleveland Center
12:38PM 42.5106 -83.0728 295° West 188 216 7,000  Level Cleveland Center
12:38PM 42.4978 -83.1142 247° West 179 206 7,000 -300 Level Cleveland Center
12:39PM 42.4800 -83.1408 228° Southwest 179 206 6,700 -1,020 Descending Cleveland Center
12:39PM 42.4681 -83.1494 208° Southwest 182 209 6,200 -1,200 Descending Cleveland Center
12:40PM 42.4369 -83.1706 207° Southwest 176 203 5,500 -900 Descending Cleveland Center
12:40PM 42.4211 -83.1856 215° Southwest 167 192 5,200 -900 Descending Cleveland Center
12:41PM 42.3958 -83.2008 204° Southwest 168 193 4,600 -1,020 Descending Cleveland Center
12:41PM 42.3833 -83.2142 218° Southwest 169 194 4,300 -900 Descending Cleveland Center
12:42PM 42.3550 -83.2325 206° Southwest 169 194 3,700 -840 Descending Cleveland Center
12:42PM 42.3414 -83.2422 208° Southwest 165 190 3,500 -780 Descending Cleveland Center
12:43PM 42.3147 -83.2614 208° Southwest 165 190 2,900 -900 Descending Cleveland Center
12:43PM 42.2969 -83.2756 211° Southwest 159 183 2,500 -780 Descending Cleveland Center
12:44PM 42.2778 -83.2889 207° Southwest 159 183 2,100 -840 Descending Cleveland Center
12:44PM 42.2636 -83.3019 214° Southwest 132 152 1,700 -780 Descending Cleveland Center
12:45PM 42.2461 -83.3133 206° Southwest 142 163 1,300 -720 Descending Cleveland Center
12:45PM 42.2303 -83.3253 209° Southwest 134 154 1,000 -420 Descending Cleveland Center
12:46PM 42.2094 -83.3411 209° Southwest 137 158 900 -180 Descending Cleveland Center
12:48PM 42.2000 -83.3500 236° Southwest  Level FlightAware Approximate
12:55PM 42.2124 -83.3534 236° Southwest  Level Estimated